Time;durP1;ratioP1;P1;durP2;ratioP2;P2;SDS_P1;SDS_P2;PMS_P1;PMS_P2;Temp;Humidity;BMP_temperature;BMP_pressure;BME280_temperature;BME280_humidity;BME280_pressure;Samples;Min_cycle;Max_cycle;Signal;HPM_P1;HPM_P2
2023/11/22 00:00:07;;;;;;;8.65;3.63;;;;;;;2.90;100.00;101988.97;5020142;28;20034;-82
2023/11/22 00:02:37;;;;;;;6.78;3.78;;;;;;;2.86;100.00;101983.63;5003110;28;20046;-78
2023/11/22 00:05:05;;;;;;;4.75;3.60;;;;;;;2.84;100.00;101990.41;5001895;28;20046;-79
2023/11/22 00:07:46;;;;;;;;;;;;;;;;;;;;;
2023/11/22 00:10:13;;;;;;;5.90;3.53;;;;;;;2.78;100.00;102002.25;5002011;28;20048;-80
2023/11/22 00:12:40;;;;;;;3.85;3.05;;;;;;;2.78;100.00;102009.13;4982475;28;20492;-82
2023/11/22 00:15:11;;;;;;;6.75;3.70;;;;;;;2.79;100.00;102021.22;4984215;28;20034;-79
2023/11/22 00:17:38;;;;;;;8.73;3.70;;;;;;;2.77;100.00;102009.94;4999865;28;20128;-79
2023/11/22 00:20:06;;;;;;;4.45;3.47;;;;;;;2.78;100.00;102011.72;4982868;28;20046;-81
2023/11/22 00:22:38;;;;;;;7.60;3.50;;;;;;;2.70;100.00;102010.47;4997824;28;20050;-81
2023/11/22 00:25:06;;;;;;;6.82;3.38;;;;;;;2.71;100.00;102010.56;4984256;28;20034;-80
2023/11/22 00:27:31;;;;;;;4.30;3.60;;;;;;;2.70;100.00;102013.06;4979210;28;20140;-80
2023/11/22 00:29:59;;;;;;;5.68;4.10;;;;;;;2.70;100.00;102024.28;4997604;28;20176;-79
2023/11/22 00:32:26;;;;;;;5.05;3.53;;;;;;;2.62;100.00;102028.22;4978769;28;20057;-79
2023/11/22 00:34:53;;;;;;;8.50;5.25;;;;;;;2.52;100.00;102021.75;5006254;28;20054;-79
2023/11/22 00:37:22;;;;;;;5.22;3.35;;;;;;;2.47;100.00;102026.69;5004185;28;20052;-78
2023/11/22 00:39:55;;;;;;;6.65;3.83;;;;;;;2.41;100.00;102030.69;4990232;28;20888;-80
2023/11/22 00:42:22;;;;;;;5.55;4.10;;;;;;;2.42;100.00;102023.00;4991019;28;20084;-76
2023/11/22 00:44:53;;;;;;;6.60;3.95;;;;;;;2.40;100.00;102026.34;5001397;28;20053;-79
2023/11/22 00:47:23;;;;;;;8.18;3.95;;;;;;;2.38;100.00;102023.69;4995414;28;20054;-79
2023/11/22 00:49:56;;;;;;;8.35;3.95;;;;;;;2.35;100.00;102028.72;5002068;28;20115;-79
2023/11/22 00:52:26;;;;;;;4.18;3.38;;;;;;;2.34;100.00;102026.94;5000543;28;20072;-79
2023/11/22 00:54:57;;;;;;;4.50;3.25;;;;;;;2.32;100.00;102025.97;5003655;28;20046;-80
2023/11/22 00:57:26;;;;;;;5.97;3.50;;;;;;;2.27;100.00;102024.91;5000176;28;20045;-78
2023/11/22 00:59:54;;;;;;;5.22;3.65;;;;;;;2.28;100.00;102027.56;4999902;28;20050;-79
2023/11/22 01:02:25;;;;;;;6.65;4.38;;;;;;;2.25;100.00;102035.13;5004750;28;20195;-78
2023/11/22 01:04:52;;;;;;;6.35;3.38;;;;;;;2.25;100.00;102047.19;5001736;28;20049;-78
2023/11/22 01:07:19;;;;;;;6.03;3.92;;;;;;;2.22;100.00;102053.09;5005023;28;20042;-78
2023/11/22 01:09:46;;;;;;;4.50;3.60;;;;;;;2.24;100.00;102059.22;5005028;28;20038;-78
2023/11/22 01:12:13;;;;;;;8.07;5.88;;;;;;;2.24;100.00;102064.41;4990478;28;20517;-78
2023/11/22 01:14:44;;;;;;;5.75;3.90;;;;;;;2.24;100.00;102079.00;5002555;28;20045;-80
2023/11/22 01:17:11;;;;;;;4.40;3.70;;;;;;;2.20;100.00;102077.97;5001008;28;20281;-78
2023/11/22 01:19:38;;;;;;;4.10;2.95;;;;;;;2.20;100.00;102090.00;4986198;28;20046;-78
2023/11/22 01:22:08;;;;;;;7.05;3.53;;;;;;;2.15;100.00;102085.50;5001416;28;20053;-80
2023/11/22 01:24:37;;;;;;;6.72;3.60;;;;;;;2.11;100.00;102085.25;4997859;28;20041;-77
2023/11/22 01:27:05;;;;;;;4.45;3.55;;;;;;;2.06;100.00;102085.06;4998464;28;20502;-76
2023/11/22 01:29:34;;;;;;;4.50;2.97;;;;;;;2.06;100.00;102085.06;5007838;28;20073;-81
2023/11/22 01:32:02;;;;;;;4.35;3.20;;;;;;;2.05;100.00;102090.16;5005609;28;20116;-81
2023/11/22 01:34:31;;;;;;;5.93;3.13;;;;;;;2.01;100.00;102098.53;4984590;28;20080;-78
2023/11/22 01:36:58;;;;;;;4.03;3.33;;;;;;;2.01;100.00;102088.22;5000445;28;20049;-78
2023/11/22 01:39:26;;;;;;;5.28;3.20;;;;;;;1.96;100.00;102088.00;5001171;28;20048;-77
2023/11/22 01:41:53;;;;;;;4.53;3.28;;;;;;;1.92;100.00;102088.66;5002587;28;20049;-80
2023/11/22 01:44:21;;;;;;;7.40;4.80;;;;;;;1.89;100.00;102091.97;4988338;28;20625;-77
2023/11/22 01:46:47;;;;;;;5.32;3.28;;;;;;;1.92;100.00;102092.13;5001067;28;20045;-77
2023/11/22 01:49:20;;;;;;;8.60;3.78;;;;;;;1.90;100.00;102088.56;4997465;28;20077;-77
2023/11/22 01:51:49;;;;;;;4.07;3.20;;;;;;;1.87;100.00;102091.00;4980368;28;20046;-78
2023/11/22 01:54:23;;;;;;;5.30;3.47;;;;;;;1.80;100.00;102091.53;4985868;28;20053;-78
2023/11/22 01:56:52;;;;;;;3.35;2.60;;;;;;;1.76;100.00;102087.88;4997492;28;20116;-78
2023/11/22 01:59:22;;;;;;;7.35;3.30;;;;;;;1.78;100.00;102082.78;5001588;28;20103;-77
2023/11/22 02:01:50;;;;;;;4.22;3.40;;;;;;;1.72;100.00;102083.38;4984448;28;20038;-80
2023/11/22 02:04:17;;;;;;;5.68;3.65;;;;;;;1.70;100.00;102091.88;4986425;28;20046;-80
2023/11/22 02:06:46;;;;;;;4.70;2.75;;;;;;;1.70;100.00;102094.44;4982925;28;20045;-77
2023/11/22 02:09:15;;;;;;;4.50;3.08;;;;;;;1.67;100.00;102091.69;4984068;28;20046;-78
2023/11/22 02:11:48;;;;;;;7.70;2.85;;;;;;;1.63;100.00;102088.06;4998444;28;20528;-77
2023/11/22 02:14:16;;;;;;;6.22;4.18;;;;;;;1.57;100.00;102087.78;5000706;28;20050;-79
2023/11/22 02:16:43;;;;;;;5.88;3.38;;;;;;;1.62;100.00;102089.75;4997225;28;20061;-77
2023/11/22 02:19:16;;;;;;;14.05;4.82;;;;;;;1.58;100.00;102099.88;4985088;28;20046;-78
2023/11/22 02:21:44;;;;;;;5.28;3.75;;;;;;;1.58;100.00;102099.88;4995546;28;20044;-80
2023/11/22 02:24:11;;;;;;;7.35;4.32;;;;;;;1.59;100.00;102104.19;4986753;28;20076;-76
2023/11/22 02:26:38;;;;;;;3.53;3.08;;;;;;;1.57;100.00;102098.09;4999656;28;20461;-77
2023/11/22 02:29:06;;;;;;;5.22;3.72;;;;;;;1.52;100.00;102104.72;5001412;28;20725;-78
2023/11/22 02:31:36;;;;;;;5.75;2.85;;;;;;;1.51;100.00;102101.22;5000326;28;20042;-82
2023/11/22 02:34:06;;;;;;;7.55;3.97;;;;;;;1.47;100.00;102099.31;4986398;28;20097;-79
2023/11/22 02:36:35;;;;;;;3.70;3.33;;;;;;;1.46;100.00;102100.09;5001792;28;20099;-81
2023/11/22 02:39:06;;;;;;;6.70;3.50;;;;;;;1.43;100.00;102095.66;5004570;28;20056;-77
2023/11/22 02:41:39;;;;;;;5.18;3.60;;;;;;;1.44;100.00;102092.28;5003120;28;20096;-80
2023/11/22 02:44:07;;;;;;;8.02;3.50;;;;;;;1.44;100.00;102101.72;4984357;28;20057;-81
2023/11/22 02:46:37;;;;;;;4.38;3.00;;;;;;;1.41;100.00;102101.56;5003661;28;20056;-76
2023/11/22 02:49:05;;;;;;;4.95;3.13;;;;;;;1.40;100.00;102099.81;4989012;28;20548;-80
2023/11/22 02:51:32;;;;;;;5.97;3.40;;;;;;;1.37;100.00;102108.28;5000455;28;20513;-80
2023/11/22 02:54:06;;;;;;;5.03;3.30;;;;;;;1.36;100.00;102115.94;4999213;28;20049;-80
2023/11/22 02:56:33;;;;;;;6.75;3.13;;;;;;;1.35;100.00;102122.78;4980644;28;20486;-79
2023/11/22 02:59:00;;;;;;;7.95;3.10;;;;;;;1.35;100.00;102134.81;4988727;28;20050;-80
2023/11/22 03:01:28;;;;;;;4.80;3.08;;;;;;;1.35;100.00;102146.00;4998846;28;20042;-79
2023/11/22 03:03:54;;;;;;;7.03;3.38;;;;;;;1.30;100.00;102147.44;4982811;28;20125;-82
2023/11/22 03:06:21;;;;;;;4.10;3.38;;;;;;;1.34;100.00;102156.25;5000415;28;20130;-80
2023/11/22 03:08:48;;;;;;;6.68;4.18;;;;;;;1.29;100.00;102149.16;4984571;28;20033;-80
2023/11/22 03:11:16;;;;;;;6.03;3.40;;;;;;;1.36;100.00;102150.34;4987363;28;20048;-79
2023/11/22 03:13:45;;;;;;;4.50;3.05;;;;;;;1.34;100.00;102161.41;4998925;28;20631;-80
2023/11/22 03:16:12;;;;;;;5.40;3.33;;;;;;;1.44;100.00;102161.09;4988313;28;20045;-80
2023/11/22 03:18:39;;;;;;;3.75;2.67;;;;;;;1.46;100.00;102159.44;4991045;28;20029;-79
2023/11/22 03:21:06;;;;;;;5.80;3.70;;;;;;;1.49;100.00;102157.94;5008494;28;20049;-79
2023/11/22 03:23:35;;;;;;;5.28;2.88;;;;;;;1.49;100.00;102163.09;5003010;28;20045;-79
2023/11/22 03:26:03;;;;;;;7.63;3.67;;;;;;;1.38;100.00;102168.50;4991368;28;20652;-79
2023/11/22 03:28:33;;;;;;;6.30;3.13;;;;;;;1.38;100.00;102160.75;5004804;28;20484;-80
2023/11/22 03:31:03;;;;;;;4.60;3.47;;;;;;;1.47;100.00;102161.22;5004997;28;20060;-82
2023/11/22 03:33:30;;;;;;;4.75;2.72;;;;;;;1.38;100.00;102160.75;4991823;28;20051;-80
2023/11/22 03:35:57;;;;;;;5.60;3.58;;;;;;;1.41;100.00;102169.56;5002620;28;20064;-79
2023/11/22 03:38:24;;;;;;;4.38;2.95;;;;;;;1.39;100.00;102171.16;5003999;28;20140;-78
2023/11/22 03:40:53;;;;;;;10.20;3.30;;;;;;;1.39;100.00;102181.47;5000964;28;20044;-77
2023/11/22 03:43:20;;;;;;;3.95;2.78;;;;;;;1.36;100.00;102185.59;5014164;28;20096;-77
2023/11/22 03:45:47;;;;;;;3.20;2.08;;;;;;;1.35;100.00;102179.53;5002889;28;20043;-78
2023/11/22 03:48:13;;;;;;;3.45;2.50;;;;;;;1.39;100.00;102178.00;5010007;28;20064;-78
2023/11/22 03:50:41;;;;;;;3.17;2.25;;;;;;;1.41;100.00;102186.72;4989314;28;20049;-78
2023/11/22 03:53:07;;;;;;;6.18;3.00;;;;;;;1.31;100.00;102187.94;4992971;28;20572;-80
2023/11/22 03:55:37;;;;;;;2.42;2.13;;;;;;;1.37;100.00;102193.41;5001594;28;20045;-78
2023/11/22 03:58:05;;;;;;;2.90;2.38;;;;;;;1.41;100.00;102189.28;4999298;28;20049;-80
2023/11/22 04:00:32;;;;;;;4.53;2.92;;;;;;;1.44;100.00;102186.88;5004112;28;20037;-82
2023/11/22 04:03:01;;;;;;;6.07;2.60;;;;;;;1.43;100.00;102187.69;4999278;28;20049;-81
2023/11/22 04:05:28;;;;;;;4.22;2.00;;;;;;;1.37;100.00;102187.34;5001516;28;20037;-82
2023/11/22 04:08:08;;;;;;;2.50;2.30;;;;;;;1.37;100.00;102190.84;4979895;28;20052;-79
2023/11/22 04:10:35;;;;;;;3.42;1.88;;;;;;;1.41;100.00;102197.03;5015454;28;20045;-79
2023/11/22 04:13:02;;;;;;;5.35;2.85;;;;;;;1.42;100.00;102201.38;4986396;28;20049;-79
2023/11/22 04:15:36;;;;;;;2.95;2.28;;;;;;;1.35;100.00;102207.03;5003868;28;20047;-80
2023/11/22 04:18:04;;;;;;;3.25;1.83;;;;;;;1.36;100.00;102207.13;4981930;28;20057;-80
2023/11/22 04:20:35;;;;;;;5.18;1.92;;;;;;;1.30;100.00;102201.63;4997555;28;20041;-78
2023/11/22 04:23:02;;;;;;;3.55;2.33;;;;;;;1.25;100.00;102211.72;5000951;28;20053;-78
2023/11/22 04:25:34;;;;;;;1.95;1.75;;;;;;;1.31;100.00;102221.47;5006004;28;20050;-77
2023/11/22 04:28:04;;;;;;;4.50;2.35;;;;;;;1.32;100.00;102224.13;4998600;28;20645;-77
2023/11/22 04:30:34;;;;;;;3.40;2.70;;;;;;;1.34;100.00;102228.47;4989789;28;20045;-80
2023/11/22 04:33:04;;;;;;;3.45;2.28;;;;;;;1.31;100.00;102242.09;5000507;28;20136;-80
2023/11/22 04:35:38;;;;;;;4.80;2.38;;;;;;;1.32;100.00;102237.03;4989358;28;20565;-79
2023/11/22 04:38:05;;;;;;;4.55;3.25;;;;;;;1.29;100.00;102236.88;5006477;28;20055;-80
2023/11/22 04:40:32;;;;;;;2.35;1.73;;;;;;;1.22;100.00;102237.31;4992403;28;20034;-77
2023/11/22 04:43:02;;;;;;;6.05;2.45;;;;;;;1.24;100.00;102232.25;5000588;28;20049;-79
2023/11/22 04:45:31;;;;;;;3.65;2.17;;;;;;;1.23;100.00;102233.94;5005115;28;20042;-78
2023/11/22 04:47:58;;;;;;;3.40;2.22;;;;;;;1.21;100.00;102230.38;4982620;28;20042;-77
2023/11/22 04:50:25;;;;;;;3.53;2.50;;;;;;;1.21;100.00;102221.75;5003121;28;20101;-78
2023/11/22 04:52:52;;;;;;;2.72;1.48;;;;;;;1.18;100.00;102222.50;5006005;28;20772;-77
2023/11/22 04:55:18;;;;;;;4.30;2.10;;;;;;;1.15;100.00;102222.31;5005775;28;20037;-81
2023/11/22 04:57:47;;;;;;;3.65;1.77;;;;;;;1.14;100.00;102228.28;5006928;28;20576;-80
2023/11/22 05:00:14;;;;;;;3.97;2.40;;;;;;;1.15;100.00;102232.66;5004555;28;20045;-77
2023/11/22 05:02:47;;;;;;;3.60;2.35;;;;;;;1.21;100.00;102234.66;5007164;28;20042;-78
2023/11/22 05:05:16;;;;;;;3.88;3.03;;;;;;;1.17;100.00;102220.69;4988587;28;20626;-77
2023/11/22 05:07:44;;;;;;;3.30;2.40;;;;;;;1.11;100.00;102220.38;4989468;28;20662;-81
2023/11/22 05:10:14;;;;;;;5.03;2.53;;;;;;;1.10;100.00;102210.88;5006857;28;20144;-77
2023/11/22 05:12:44;;;;;;;3.45;2.17;;;;;;;1.12;100.00;102219.56;4989558;28;20394;-79
2023/11/22 05:15:11;;;;;;;4.93;2.20;;;;;;;1.09;100.00;102217.69;4993001;28;20037;-77
2023/11/22 05:17:41;;;;;;;3.33;2.22;;;;;;;1.10;100.00;102214.31;4983022;28;20053;-81
2023/11/22 05:20:10;;;;;;;4.13;2.78;;;;;;;1.10;100.00;102214.31;4985693;28;20239;-80
2023/11/22 05:22:38;;;;;;;6.57;2.35;;;;;;;1.08;100.00;102227.94;4986258;28;20042;-78
2023/11/22 05:25:06;;;;;;;4.28;2.13;;;;;;;1.07;100.00;102227.06;4970847;28;20084;-80
2023/11/22 05:27:36;;;;;;;3.20;2.58;;;;;;;1.08;100.00;102227.94;5001043;28;20038;-80
2023/11/22 05:30:04;;;;;;;6.60;2.22;;;;;;;1.04;100.00;102233.72;5003179;28;20046;-78
2023/11/22 05:32:31;;;;;;;2.75;2.47;;;;;;;1.04;100.00;102236.31;4998255;28;20049;-80
2023/11/22 05:35:00;;;;;;;3.58;2.80;;;;;;;1.04;100.00;102246.63;5002053;28;20042;-80
2023/11/22 05:37:31;;;;;;;1.92;1.73;;;;;;;1.00;100.00;102248.16;4990464;28;20078;-81
2023/11/22 05:39:57;;;;;;;3.45;3.10;;;;;;;1.01;100.00;102242.19;4984928;28;20524;-81
2023/11/22 05:42:24;;;;;;;1.70;1.60;;;;;;;0.96;100.00;102256.50;4986527;28;20047;-79
2023/11/22 05:44:51;;;;;;;7.32;3.92;;;;;;;0.92;100.00;102252.88;4985501;28;20049;-78
2023/11/22 05:47:18;;;;;;;4.18;2.33;;;;;;;0.90;100.00;102259.66;4965092;28;20422;-80
2023/11/22 05:49:45;;;;;;;6.32;2.50;;;;;;;0.85;100.00;102260.16;4966705;28;20061;-78
2023/11/22 05:52:12;;;;;;;5.68;2.22;;;;;;;0.83;100.00;102265.25;4997028;28;20045;-80
2023/11/22 05:54:38;;;;;;;4.45;2.63;;;;;;;0.80;100.00;102263.38;4981515;28;20080;-81
2023/11/22 05:57:05;;;;;;;4.82;2.85;;;;;;;0.78;100.00;102271.81;4992744;28;20570;-81
2023/11/22 05:59:32;;;;;;;4.50;2.85;;;;;;;0.78;100.00;102275.31;4976129;28;20751;-81
2023/11/22 06:02:01;;;;;;;4.28;3.80;;;;;;;0.77;100.00;102285.50;4964861;28;20038;-79
2023/11/22 06:04:29;;;;;;;4.40;2.53;;;;;;;0.78;100.00;102289.88;4963143;28;20050;-80
2023/11/22 06:06:56;;;;;;;5.15;2.58;;;;;;;0.71;100.00;102296.38;4966894;28;20056;-81
2023/11/22 06:09:25;;;;;;;5.97;3.47;;;;;;;0.68;100.00;102305.59;4983361;28;20046;-80
2023/11/22 06:11:56;;;;;;;3.47;2.60;;;;;;;0.69;100.00;102303.09;4980428;28;20389;-79
2023/11/22 06:14:23;;;;;;;3.65;2.50;;;;;;;0.69;100.00;102302.22;4973176;28;20054;-79
2023/11/22 06:16:50;;;;;;;4.68;3.03;;;;;;;0.73;100.00;102302.50;4959430;28;20053;-77
2023/11/22 06:19:23;;;;;;;7.50;3.60;;;;;;;0.73;100.00;102293.88;4984172;28;20088;-80
2023/11/22 06:21:49;;;;;;;5.90;2.42;;;;;;;0.72;100.00;102295.56;4999378;28;20083;-79
2023/11/22 06:24:20;;;;;;;3.15;2.85;;;;;;;0.83;100.00;102296.19;5001883;28;20107;-77
2023/11/22 06:26:46;;;;;;;4.53;2.13;;;;;;;0.84;100.00;102304.81;4983688;28;20372;-77
2023/11/22 06:29:14;;;;;;;5.07;3.08;;;;;;;0.87;100.00;102305.00;5016176;28;20041;-80
2023/11/22 06:31:41;;;;;;;4.68;2.10;;;;;;;0.83;100.00;102301.34;4982920;28;20595;-77
2023/11/22 06:34:08;;;;;;;4.75;3.08;;;;;;;0.84;100.00;102300.53;4995278;28;20049;-80
2023/11/22 06:36:35;;;;;;;3.30;2.35;;;;;;;0.79;100.00;102307.13;4987058;28;20559;-80
2023/11/22 06:39:02;;;;;;;3.53;2.10;;;;;;;0.80;100.00;102306.31;4981960;28;20064;-82
2023/11/22 06:41:32;;;;;;;4.68;2.50;;;;;;;0.80;100.00;102296.88;4998625;28;20037;-79
2023/11/22 06:43:58;;;;;;;6.93;2.75;;;;;;;0.85;100.00;102292.00;4997665;28;20720;-82
2023/11/22 06:46:25;;;;;;;4.22;2.63;;;;;;;0.86;100.00;102288.63;4983297;28;20046;-79
2023/11/22 06:48:53;;;;;;;3.70;2.90;;;;;;;0.87;100.00;102282.66;5000551;28;20152;-80
2023/11/22 06:51:20;;;;;;;4.57;2.35;;;;;;;0.88;100.00;102284.44;4993027;28;20107;-80
2023/11/22 06:53:54;;;;;;;5.07;2.53;;;;;;;0.89;100.00;102281.06;4983248;28;20103;-82
2023/11/22 06:56:21;;;;;;;6.70;2.58;;;;;;;0.91;100.00;102281.16;4986550;28;20136;-78
2023/11/22 06:58:51;;;;;;;3.72;2.50;;;;;;;0.92;100.00;102278.66;4998316;28;20132;-80
2023/11/22 07:01:18;;;;;;;5.20;2.28;;;;;;;1.02;100.00;102282.66;4997242;28;20056;-77
2023/11/22 07:03:45;;;;;;;2.40;1.95;;;;;;;1.04;100.00;102288.78;5001029;28;20049;-78
2023/11/22 07:06:12;;;;;;;4.40;2.78;;;;;;;1.06;100.00;102289.75;4997873;28;20065;-77
2023/11/22 07:08:38;;;;;;;4.32;2.10;;;;;;;1.03;100.00;102284.44;4999164;28;20042;-81
2023/11/22 07:11:10;;;;;;;5.47;2.63;;;;;;;1.08;100.00;102290.75;4999236;28;20498;-80
2023/11/22 07:13:38;;;;;;;3.60;2.40;;;;;;;1.11;100.00;102280.59;4998805;28;20077;-78
2023/11/22 07:16:06;;;;;;;4.78;2.45;;;;;;;1.14;100.00;102282.44;4997103;28;20046;-80
2023/11/22 07:18:35;;;;;;;3.45;3.03;;;;;;;1.15;100.00;102268.75;4988944;28;20056;-80
2023/11/22 07:21:03;;;;;;;7.55;3.90;;;;;;;1.17;100.00;102271.41;5002469;28;20068;-81
2023/11/22 07:23:32;;;;;;;8.93;4.45;;;;;;;1.21;100.00;102276.81;5008573;28;20044;-81
2023/11/22 07:25:58;;;;;;;4.43;2.63;;;;;;;1.27;100.00;102274.59;5002153;28;20203;-79
2023/11/22 07:28:26;;;;;;;3.88;2.72;;;;;;;1.34;100.00;102280.09;4987244;28;20056;-80
2023/11/22 07:30:52;;;;;;;2.42;2.08;;;;;;;1.37;100.00;102276.00;5000929;28;20163;-80
2023/11/22 07:33:20;;;;;;;5.47;2.30;;;;;;;1.47;100.00;102273.13;4989808;28;20070;-80
2023/11/22 07:35:48;;;;;;;5.47;3.10;;;;;;;1.51;100.00;102261.25;5001663;28;20041;-78
2023/11/22 07:38:17;;;;;;;2.35;2.13;;;;;;;1.45;99.95;102254.06;5001820;28;20144;-79
2023/11/22 07:40:44;;;;;;;5.43;2.58;;;;;;;1.53;100.00;102258.75;5007087;28;20042;-79
2023/11/22 07:43:13;;;;;;;7.13;2.83;;;;;;;1.56;100.00;102253.75;5003039;28;20045;-78
2023/11/22 07:45:43;;;;;;;5.32;2.58;;;;;;;1.58;99.36;102255.63;5005350;28;20144;-80
2023/11/22 07:48:13;;;;;;;3.88;2.40;;;;;;;1.62;98.83;102265.28;4986429;28;20104;-79
2023/11/22 07:50:43;;;;;;;4.88;2.40;;;;;;;1.58;98.05;102273.69;5006105;28;20069;-79
2023/11/22 07:53:14;;;;;;;4.85;2.60;;;;;;;1.68;98.05;102277.63;5009759;28;20045;-81
2023/11/22 07:55:43;;;;;;;4.38;2.42;;;;;;;1.77;97.39;102287.56;5004827;28;20052;-80
2023/11/22 07:58:10;;;;;;;2.28;1.88;;;;;;;1.72;96.10;102289.94;4987007;28;20398;-79
2023/11/22 08:00:38;;;;;;;2.45;1.88;;;;;;;1.75;95.85;102284.91;5006786;28;20072;-79
2023/11/22 08:03:06;;;;;;;5.93;2.55;;;;;;;1.80;95.75;102290.34;5001285;28;20489;-79
2023/11/22 08:05:36;;;;;;;4.43;2.13;;;;;;;1.89;95.23;102297.66;5007441;28;20056;-79
2023/11/22 08:08:07;;;;;;;2.70;2.28;;;;;;;1.90;94.79;102299.44;5005821;28;20064;-79
2023/11/22 08:10:38;;;;;;;3.60;2.20;;;;;;;1.92;94.25;102290.09;5011851;28;20045;-78
2023/11/22 08:13:04;;;;;;;4.05;2.05;;;;;;;1.85;93.38;102295.72;5009289;28;20077;-79
2023/11/22 08:15:32;;;;;;;3.95;1.58;;;;;;;1.91;93.83;102296.94;5010231;28;20053;-81
2023/11/22 08:18:00;;;;;;;7.10;1.75;;;;;;;1.94;93.73;102298.78;5010936;28;20054;-79
2023/11/22 08:20:27;;;;;;;14.65;3.25;;;;;;;2.03;92.72;102316.47;5012269;28;20141;-80
2023/11/22 08:22:54;;;;;;;11.23;4.28;;;;;;;2.07;92.70;102305.50;4995459;28;20049;-80
2023/11/22 08:25:21;;;;;;;11.55;2.95;;;;;;;2.15;91.95;102319.69;4991652;28;20058;-81
2023/11/22 08:27:47;;;;;;;14.57;3.60;;;;;;;2.20;91.82;102344.06;5006818;28;20041;-80
2023/11/22 08:30:15;;;;;;;14.40;5.43;;;;;;;2.28;92.42;102352.22;4992546;28;20784;-82
2023/11/22 08:32:51;;;;;;;5.75;3.95;;;;;;;2.27;91.72;102353.94;4995070;28;20045;-79
2023/11/22 08:35:18;;;;;;;11.35;3.38;;;;;;;2.28;91.37;102357.41;5021023;28;20037;-79
2023/11/22 08:37:46;;;;;;;9.55;3.15;;;;;;;2.24;91.35;102361.53;5022213;28;20037;-81
2023/11/22 08:40:14;;;;;;;13.95;4.68;;;;;;;2.35;91.39;102366.38;5002274;28;20049;-79
2023/11/22 08:42:41;;;;;;;25.52;5.55;;;;;;;2.26;90.88;102384.88;5010114;28;20045;-80
2023/11/22 08:45:09;;;;;;;30.00;7.22;;;;;;;2.24;90.43;102378.72;5003263;28;20481;-78
2023/11/22 08:47:40;;;;;;;21.20;5.75;;;;;;;2.29;91.13;102364.34;5007667;28;20068;-78
2023/11/22 08:50:11;;;;;;;20.42;7.05;;;;;;;2.38;91.09;102361.38;4990722;28;20124;-79
2023/11/22 08:52:42;;;;;;;13.48;3.65;;;;;;;2.29;90.57;102356.59;5006354;28;20056;-78
2023/11/22 08:55:09;;;;;;;13.73;3.55;;;;;;;2.29;91.30;102351.44;5000876;28;20046;-78
2023/11/22 08:57:37;;;;;;;13.35;3.83;;;;;;;2.31;90.27;102347.25;5009108;28;20776;-76
2023/11/22 09:00:09;;;;;;;9.10;3.78;;;;;;;2.24;90.12;102356.38;4988321;28;20046;-77
2023/11/22 09:02:40;;;;;;;12.63;2.95;;;;;;;2.27;91.28;102346.19;4980611;28;20116;-79
2023/11/22 09:05:09;;;;;;;15.35;3.70;;;;;;;2.21;91.61;102335.53;4986816;28;20049;-79
2023/11/22 09:07:37;;;;;;;5.90;2.83;;;;;;;2.24;91.37;102332.22;5004705;28;20116;-80
2023/11/22 09:10:09;;;;;;;7.22;2.75;;;;;;;2.23;91.84;102335.59;5000497;28;20670;-78
2023/11/22 09:12:39;;;;;;;4.85;3.00;;;;;;;2.30;92.08;102343.75;5003599;28;20091;-77
2023/11/22 09:15:12;;;;;;;4.80;2.00;;;;;;;2.51;91.63;102360.31;4984480;28;20563;-77
2023/11/22 09:17:43;;;;;;;2.00;1.73;;;;;;;2.60;91.35;102365.97;5006057;28;20053;-79
2023/11/22 09:20:17;;;;;;;4.07;2.45;;;;;;;2.69;90.43;102355.22;5005878;28;20045;-78
2023/11/22 09:22:47;;;;;;;3.58;2.83;;;;;;;2.69;90.01;102357.78;5023307;28;20051;-77
2023/11/22 09:25:24;;;;;;;4.88;2.45;;;;;;;2.76;90.04;102355.56;4992417;28;20042;-78
2023/11/22 09:27:55;;;;;;;5.57;3.70;;;;;;;2.55;89.49;102357.94;4985543;28;20037;-76
2023/11/22 09:30:35;;;;;;;2.42;2.22;;;;;;;2.57;89.65;102365.78;4995614;28;20654;-79
2023/11/22 09:33:05;;;;;;;4.25;2.08;;;;;;;2.64;89.08;102361.00;4992792;28;20092;-80
2023/11/22 09:35:36;;;;;;;6.22;1.88;;;;;;;2.76;88.53;102354.69;4990996;28;20041;-79
2023/11/22 09:38:06;;;;;;;5.10;2.15;;;;;;;2.84;89.44;102370.59;5004248;28;20041;-80
2023/11/22 09:40:33;;;;;;;3.20;2.30;;;;;;;2.83;88.91;102358.47;5017636;28;20077;-77
2023/11/22 09:43:02;;;;;;;7.57;2.47;;;;;;;2.75;88.09;102359.00;4990866;28;20049;-79
2023/11/22 09:45:30;;;;;;;4.28;3.08;;;;;;;2.57;87.25;102356.34;5002717;28;20132;-80
2023/11/22 09:47:57;;;;;;;3.85;2.47;;;;;;;2.62;87.20;102344.53;5002242;28;20045;-81
2023/11/22 09:50:36;;;;;;;3.05;2.42;;;;;;;2.79;87.70;102344.50;5004837;28;20121;-80
2023/11/22 09:53:12;;;;;;;4.30;2.42;;;;;;;2.86;86.85;102337.94;4992568;28;20053;-79
2023/11/22 09:55:45;;;;;;;4.93;3.40;;;;;;;3.01;86.76;102338.69;5003731;28;20045;-76
2023/11/22 09:58:14;;;;;;;3.80;2.38;;;;;;;2.93;85.80;102338.34;5000960;28;20124;-77
2023/11/22 10:00:42;;;;;;;2.67;2.47;;;;;;;3.17;86.30;102349.78;5004998;28;20088;-77
2023/11/22 10:03:12;;;;;;;4.85;2.83;;;;;;;3.06;83.17;102350.16;4987426;28;20041;-77
2023/11/22 10:05:43;;;;;;;5.20;2.47;;;;;;;2.94;84.16;102354.72;5004567;28;20051;-78
2023/11/22 10:08:14;;;;;;;3.28;2.70;;;;;;;3.00;82.75;102355.03;4997940;28;20124;-79
2023/11/22 10:10:42;;;;;;;5.03;3.13;;;;;;;2.91;82.90;102375.28;5018372;28;20457;-79
2023/11/22 10:13:09;;;;;;;3.55;3.03;;;;;;;2.88;81.79;102377.69;5014444;28;20045;-82
2023/11/22 10:15:36;;;;;;;5.07;3.22;;;;;;;2.88;82.34;102369.94;5006211;28;20037;-77
2023/11/22 10:18:03;;;;;;;6.00;2.85;;;;;;;3.18;82.84;102378.34;4991131;28;20053;-81
2023/11/22 10:20:39;;;;;;;5.97;3.17;;;;;;;3.27;82.46;102375.31;4986710;28;20120;-80
2023/11/22 10:23:19;;;;;;;5.68;2.75;;;;;;;3.36;82.12;102370.56;4997821;28;20139;-78
2023/11/22 10:25:52;;;;;;;5.18;3.17;;;;;;;3.45;82.33;102368.41;5005141;28;20045;-80
2023/11/22 10:28:24;;;;;;;4.68;2.67;;;;;;;3.03;81.53;102364.66;5004015;28;20041;-79
2023/11/22 10:30:51;;;;;;;5.05;2.50;;;;;;;3.23;80.91;102368.22;5002567;28;20107;-78
2023/11/22 10:33:22;;;;;;;3.55;2.88;;;;;;;3.10;77.31;102375.38;5003784;28;20042;-77
2023/11/22 10:35:52;;;;;;;2.80;2.33;;;;;;;3.12;76.58;102386.69;4989143;28;20044;-79
2023/11/22 10:38:25;;;;;;;4.53;3.25;;;;;;;3.16;76.09;102371.31;4991474;28;20057;-79
2023/11/22 10:40:59;;;;;;;13.82;4.18;;;;;;;3.30;75.65;102370.31;5004469;28;20096;-78
2023/11/22 10:43:29;;;;;;;3.45;2.88;;;;;;;3.14;77.07;102359.19;5001731;28;20128;-79
2023/11/22 10:45:57;;;;;;;3.45;2.83;;;;;;;3.24;75.13;102346.69;5006295;28;20053;-81
2023/11/22 10:48:25;;;;;;;5.72;3.50;;;;;;;3.29;73.96;102345.22;5002378;28;20115;-79
2023/11/22 10:51:00;;;;;;;4.05;2.83;;;;;;;3.42;73.78;102341.53;5009920;28;20056;-80
2023/11/22 10:53:38;;;;;;;5.22;2.90;;;;;;;3.27;74.13;102357.19;5008257;28;20044;-79
2023/11/22 10:56:19;;;;;;;4.63;3.20;;;;;;;3.43;73.36;102362.31;4985236;28;20061;-80
2023/11/22 10:58:57;;;;;;;3.60;2.88;;;;;;;3.40;71.08;102351.81;4978844;28;20345;-79
2023/11/22 11:01:29;;;;;;;3.72;2.83;;;;;;;3.35;69.22;102354.97;5028918;28;20049;-80
2023/11/22 11:04:17;;;;;;;6.85;2.80;;;;;;;3.30;69.29;102355.66;5032666;28;20097;-79
2023/11/22 11:06:52;;;;;;;6.80;2.95;;;;;;;3.48;70.62;102349.56;5028472;28;20037;-80
2023/11/22 11:09:24;;;;;;;4.95;2.85;;;;;;;3.27;68.61;102333.91;5015749;28;20076;-79
2023/11/22 11:11:51;;;;;;;5.82;3.30;;;;;;;3.12;68.25;102331.47;5016666;28;20124;-81
2023/11/22 11:14:18;;;;;;;5.00;2.95;;;;;;;3.24;69.71;102326.88;5009906;28;20092;-81
2023/11/22 11:16:53;;;;;;;4.40;2.85;;;;;;;3.32;71.09;102322.06;5006154;28;20050;-78
2023/11/22 11:19:22;;;;;;;5.25;3.25;;;;;;;3.31;71.17;102307.34;5002048;28;20104;-79
2023/11/22 11:21:51;;;;;;;5.25;3.28;;;;;;;3.68;71.36;102293.53;5003529;28;20104;-78
2023/11/22 11:24:19;;;;;;;5.20;3.28;;;;;;;3.63;69.39;102293.31;5009724;28;20053;-80
2023/11/22 11:26:52;;;;;;;6.80;3.10;;;;;;;3.64;67.81;102302.88;5003632;28;20107;-80
2023/11/22 11:29:42;;;;;;;6.28;3.72;;;;;;;3.43;67.49;102281.16;5004629;28;20034;-77
2023/11/22 11:32:33;;;;;;;5.53;3.33;;;;;;;3.56;67.05;102292.97;4993485;28;20576;-78
2023/11/22 11:35:08;;;;;;;5.53;3.58;;;;;;;3.68;67.32;102279.69;4991736;28;20041;-81
2023/11/22 11:37:34;;;;;;;7.38;3.03;;;;;;;3.54;67.10;102276.47;5008464;28;20045;-79